Monterey Park, California
Current Conditions -  °F | °C
As of 1:47 AM on Saturday 25 Oct 2014 (Local Time) from KCQT Reporting Station
Clear Clear  
Wind Chill: 64°   Ceiling: Unl
Heat Index: 64°   Visibility: 10mi
Dew Point: 57°   Wind: 0mph
Humidity: 78%   Direction: NA
Pressure: 30.02"   Gusts: NA
Location:  34.06°N, 118.12°W
Report Text: KCQT 250847Z AUTO 00000KT 10SM CLR 18/14 A3002 RMK AO2 SLP163 T01780139 51010
Loading
Personal Weather Stations






























Interactive Weather Map
Tropical Storm Tracking
New forecast layout! Learn more

10-Day Weather Forecast

Advertisements
Track Severe Weather on mobile